createdAt,value
2023-04-16T00:02:25.310Z,84.30
2023-04-16T00:04:52.334Z,84.20
2023-04-16T00:07:19.216Z,84.30
2023-04-16T00:09:46.732Z,84.40
2023-04-16T00:12:13.721Z,84.20
2023-04-16T00:14:40.698Z,84.20
2023-04-16T00:17:07.724Z,84.00
2023-04-16T00:19:34.647Z,83.90
2023-04-16T00:22:01.676Z,84.00
2023-04-16T00:24:28.517Z,84.10
2023-04-16T00:26:55.955Z,83.90
2023-04-16T00:29:23.211Z,83.60
2023-04-16T00:31:50.069Z,83.90
2023-04-16T00:34:16.926Z,83.90
2023-04-16T00:36:43.745Z,84.00
2023-04-16T00:39:11.004Z,84.20
2023-04-16T00:41:38.634Z,84.40
2023-04-16T00:44:05.554Z,84.20
2023-04-16T00:46:32.583Z,84.20
2023-04-16T00:49:01.358Z,84.20
2023-04-16T00:51:28.521Z,84.20
2023-04-16T00:53:56.269Z,83.80
2023-04-16T00:56:24.667Z,83.60
2023-04-16T00:58:51.468Z,83.70
2023-04-16T01:01:18.498Z,83.80
2023-04-16T01:03:48.717Z,84.20
2023-04-16T01:06:18.210Z,84.20
2023-04-16T01:08:47.049Z,84.30
2023-04-16T01:11:15.725Z,84.60
2023-04-16T01:13:43.041Z,84.60
2023-04-16T01:16:12.792Z,84.60
2023-04-16T01:18:40.125Z,84.70
2023-04-16T01:21:07.585Z,84.60
2023-04-16T01:23:34.653Z,84.40
2023-04-16T01:26:01.461Z,84.50
2023-04-16T01:28:28.372Z,84.60
2023-04-16T01:30:55.301Z,84.80
2023-04-16T01:33:22.212Z,84.80
2023-04-16T01:35:49.274Z,84.70
2023-04-16T01:38:19.077Z,84.60
2023-04-16T01:40:45.888Z,84.40
2023-04-16T01:43:12.779Z,84.60
2023-04-16T01:45:39.650Z,84.40
2023-04-16T01:48:07.079Z,84.40
2023-04-16T01:50:34.895Z,84.70
2023-04-16T01:53:05.035Z,84.70
2023-04-16T01:55:34.437Z,84.90
2023-04-16T01:58:01.277Z,84.40
2023-04-16T02:00:28.087Z,84.70
2023-04-16T02:02:55.073Z,84.90
2023-04-16T02:05:21.996Z,85.00
2023-04-16T02:07:48.966Z,85.00
2023-04-16T02:10:16.051Z,84.90
2023-04-16T02:12:42.903Z,85.10
2023-04-16T02:15:10.745Z,84.90
2023-04-16T02:17:37.681Z,85.00
2023-04-16T02:20:08.196Z,85.00
2023-04-16T02:22:35.072Z,85.00
2023-04-16T02:25:02.054Z,84.60
2023-04-16T02:27:28.980Z,84.60
2023-04-16T02:29:55.891Z,84.40
2023-04-16T02:32:22.794Z,84.70
2023-04-16T02:34:49.609Z,84.80
2023-04-16T02:37:16.532Z,84.50
2023-04-16T02:39:43.990Z,84.60
2023-04-16T02:42:10.965Z,84.60
2023-04-16T02:44:37.796Z,84.50
2023-04-16T02:47:04.587Z,84.40
2023-04-16T02:49:31.570Z,84.50
2023-04-16T02:51:58.413Z,84.60
2023-04-16T02:54:25.296Z,84.40
2023-04-16T02:56:52.120Z,84.60
2023-04-16T02:59:18.947Z,84.40
2023-04-16T03:01:45.878Z,84.50
2023-04-16T03:04:12.827Z,84.60
2023-04-16T03:06:39.808Z,84.60
2023-04-16T03:09:06.691Z,84.80
2023-04-16T03:11:33.503Z,85.10
2023-04-16T03:14:00.365Z,84.80
2023-04-16T03:16:27.294Z,84.60
2023-04-16T03:18:54.143Z,84.50
2023-04-16T03:21:21.002Z,84.50
2023-04-16T03:23:48.037Z,84.80
2023-04-16T03:26:14.903Z,84.70
2023-04-16T03:28:41.721Z,84.70
2023-04-16T03:31:08.581Z,84.70
2023-04-16T03:33:35.809Z,84.60
2023-04-16T03:36:03.425Z,84.60
2023-04-16T03:38:30.374Z,84.60
2023-04-16T03:40:57.297Z,84.90
2023-04-16T03:43:24.125Z,85.10
2023-04-16T03:45:51.368Z,84.80
2023-04-16T03:48:18.309Z,84.70
2023-04-16T03:50:48.506Z,84.40
2023-04-16T03:53:15.578Z,83.90
2023-04-16T03:55:42.883Z,84.30
2023-04-16T03:58:10.663Z,84.40
2023-04-16T04:00:37.568Z,84.50
2023-04-16T04:03:04.591Z,84.20
2023-04-16T04:05:31.613Z,84.30
2023-04-16T04:07:58.476Z,84.30
2023-04-16T04:10:25.463Z,84.30
2023-04-16T04:12:52.296Z,84.10
2023-04-16T04:15:19.254Z,84.10
2023-04-16T04:17:46.337Z,84.20
2023-04-16T04:20:13.277Z,83.90
2023-04-16T04:22:40.255Z,84.10
2023-04-16T04:25:08.625Z,84.20
2023-04-16T04:27:35.584Z,84.30
2023-04-16T04:30:04.897Z,84.30
2023-04-16T04:32:32.238Z,84.40
2023-04-16T04:35:02.362Z,84.20
2023-04-16T04:37:29.719Z,84.10
2023-04-16T04:39:56.614Z,84.10
2023-04-16T04:42:23.515Z,84.30
2023-04-16T04:44:50.394Z,84.40
2023-04-16T04:47:17.256Z,84.50
2023-04-16T04:49:44.124Z,84.60
2023-04-16T04:52:11.589Z,84.80
2023-04-16T04:54:41.529Z,84.80
2023-04-16T04:57:08.920Z,84.80
2023-04-16T04:59:35.945Z,84.80
2023-04-16T05:02:03.491Z,85.00
2023-04-16T05:04:31.395Z,85.30
2023-04-16T05:06:58.303Z,85.20
2023-04-16T05:09:25.342Z,85.30
2023-04-16T05:11:52.544Z,84.80
2023-04-16T05:14:19.412Z,84.90
2023-04-16T05:16:46.244Z,85.10
2023-04-16T05:19:13.187Z,85.10
2023-04-16T05:21:40.015Z,84.80
2023-04-16T05:24:06.932Z,84.70
2023-04-16T05:26:33.788Z,84.80
2023-04-16T05:29:00.808Z,85.10
2023-04-16T05:31:27.712Z,85.10
2023-04-16T05:33:54.531Z,85.00
2023-04-16T05:36:21.372Z,85.00
2023-04-16T05:38:48.171Z,84.80
2023-04-16T05:41:15.061Z,84.50
2023-04-16T05:43:41.879Z,84.50
2023-04-16T05:46:08.748Z,84.50
2023-04-16T05:48:35.612Z,85.10
2023-04-16T05:51:02.735Z,85.10
2023-04-16T05:53:29.549Z,85.20
2023-04-16T05:55:56.406Z,85.30
2023-04-16T05:58:23.360Z,85.30
2023-04-16T06:00:50.552Z,85.30
2023-04-16T06:03:17.488Z,85.40
2023-04-16T06:05:44.990Z,85.50
2023-04-16T06:08:12.044Z,85.50
2023-04-16T06:10:39.208Z,85.70
2023-04-16T06:13:06.050Z,85.50
2023-04-16T06:15:32.885Z,85.50
2023-04-16T06:18:00.879Z,85.30
2023-04-16T06:20:28.169Z,85.40
2023-04-16T06:22:56.211Z,85.60
2023-04-16T06:25:23.555Z,85.50
2023-04-16T06:27:50.458Z,85.50
2023-04-16T06:30:17.425Z,86.50
2023-04-16T06:32:44.549Z,86.40
2023-04-16T06:35:11.602Z,86.30
2023-04-16T06:37:56.910Z,86.70
2023-04-16T06:40:23.875Z,85.50
2023-04-16T06:42:50.890Z,85.70
2023-04-16T06:45:17.879Z,85.70
2023-04-16T06:47:44.728Z,85.70
2023-04-16T06:50:11.749Z,85.70
2023-04-16T06:52:38.644Z,85.50
2023-04-16T06:55:08.239Z,85.70
2023-04-16T06:57:37.378Z,85.60
2023-04-16T07:00:05.272Z,85.40
2023-04-16T07:02:32.193Z,85.30
2023-04-16T07:04:59.108Z,85.10
2023-04-16T07:07:26.271Z,85.30
2023-04-16T07:09:53.098Z,85.60
2023-04-16T07:12:22.661Z,85.60
2023-04-16T07:14:49.907Z,85.70
2023-04-16T07:17:16.812Z,85.80
2023-04-16T07:19:44.246Z,84.80
2023-04-16T07:22:11.106Z,85.40
2023-04-16T07:24:38.036Z,85.20
2023-04-16T07:27:05.284Z,85.10
2023-04-16T07:29:32.067Z,85.40
2023-04-16T07:31:58.952Z,85.50
2023-04-16T07:34:26.041Z,85.80
2023-04-16T07:36:52.914Z,86.10
2023-04-16T07:39:19.785Z,86.10
2023-04-16T07:41:46.672Z,86.40
2023-04-16T07:44:13.654Z,85.40
2023-04-16T07:46:46.752Z,84.80
2023-04-16T07:49:14.930Z,84.90
2023-04-16T07:51:41.891Z,85.00
2023-04-16T07:54:08.799Z,84.60
2023-04-16T07:56:35.989Z,84.50
2023-04-16T07:59:11.071Z,84.20
2023-04-16T08:01:46.034Z,84.00
2023-04-16T08:04:14.272Z,84.60
2023-04-16T08:06:41.351Z,84.40
2023-04-16T08:09:08.477Z,84.00
2023-04-16T08:11:35.615Z,85.10
2023-04-16T08:14:02.515Z,84.70
2023-04-16T08:16:29.451Z,85.00
2023-04-16T08:18:56.408Z,85.30
2023-04-16T08:21:23.348Z,85.10
2023-04-16T08:23:50.494Z,85.50
2023-04-16T08:26:17.580Z,85.80
2023-04-16T08:28:44.436Z,86.00
2023-04-16T08:31:11.700Z,85.70
2023-04-16T08:33:40.287Z,85.80
2023-04-16T08:36:07.172Z,86.00
2023-04-16T08:38:34.011Z,86.30
2023-04-16T08:41:06.463Z,86.50
2023-04-16T08:43:38.044Z,85.60
2023-04-16T08:46:06.361Z,86.90
2023-04-16T08:48:35.326Z,86.80
2023-04-16T08:51:03.152Z,85.90
2023-04-16T08:53:43.131Z,86.10
2023-04-16T08:56:13.040Z,85.10
2023-04-16T08:58:40.606Z,86.80
2023-04-16T09:01:10.945Z,87.20
2023-04-16T09:03:38.565Z,87.50
2023-04-16T09:06:07.673Z,87.80
2023-04-16T09:08:36.177Z,87.30
2023-04-16T09:11:04.603Z,86.70
2023-04-16T09:13:34.703Z,86.50
2023-04-16T09:16:02.198Z,85.80
2023-04-16T09:18:30.341Z,87.20
2023-04-16T09:20:57.571Z,88.70
2023-04-16T09:23:25.118Z,89.40
2023-04-16T09:25:52.018Z,89.30
2023-04-16T09:28:42.911Z,87.90
2023-04-16T09:31:14.021Z,79.20
2023-04-16T09:33:41.560Z,78.20
2023-04-16T09:36:09.609Z,77.10
2023-04-16T09:38:51.290Z,86.80
2023-04-16T09:41:19.632Z,81.40
2023-04-16T09:44:00.500Z,86.20
2023-04-16T09:47:05.507Z,80.50
2023-04-16T09:49:44.435Z,79.50
2023-04-16T09:52:22.322Z,88.80
2023-04-16T09:54:53.804Z,85.90
2023-04-16T09:57:22.753Z,86.90
2023-04-16T10:00:05.894Z,85.20
2023-04-16T10:02:34.650Z,79.60
2023-04-16T10:05:03.221Z,84.50
2023-04-16T10:07:35.151Z,82.50
2023-04-16T10:10:04.060Z,81.90
2023-04-16T10:12:32.972Z,83.40
2023-04-16T10:15:00.109Z,83.90
2023-04-16T10:17:29.985Z,84.60
2023-04-16T10:19:58.588Z,86.40
2023-04-16T10:22:26.665Z,87.00
2023-04-16T10:24:54.736Z,84.80
2023-04-16T10:27:22.033Z,82.00
2023-04-16T10:29:50.054Z,81.60
2023-04-16T10:32:20.756Z,80.00
2023-04-16T10:34:48.226Z,79.00
2023-04-16T10:37:18.095Z,78.80
2023-04-16T10:39:45.142Z,79.50
2023-04-16T10:42:13.000Z,82.40
2023-04-16T10:44:43.648Z,82.20
2023-04-16T10:47:14.153Z,80.90
2023-04-16T10:49:42.625Z,81.00
2023-04-16T10:52:17.136Z,81.30
2023-04-16T10:54:44.504Z,79.90
2023-04-16T10:57:17.686Z,82.40
2023-04-16T10:59:46.214Z,80.40
2023-04-16T11:02:18.226Z,83.20
2023-04-16T11:04:49.439Z,80.20
2023-04-16T11:07:34.326Z,81.70
2023-04-16T11:10:05.473Z,80.10
2023-04-16T11:12:51.455Z,79.40
2023-04-16T11:15:21.954Z,72.30
2023-04-16T11:17:51.871Z,79.90
2023-04-16T11:20:28.312Z,80.50
2023-04-16T11:22:58.088Z,80.90
2023-04-16T11:25:29.476Z,82.20
2023-04-16T11:27:58.683Z,83.40
2023-04-16T11:30:41.584Z,84.60
2023-04-16T11:33:13.921Z,78.10
2023-04-16T11:35:41.456Z,83.00
2023-04-16T11:38:08.599Z,83.00
2023-04-16T11:40:36.304Z,82.20
2023-04-16T11:43:15.426Z,80.70
2023-04-16T11:46:16.728Z,79.90
2023-04-16T11:48:56.085Z,72.30
2023-04-16T11:51:23.641Z,77.30
2023-04-16T11:53:56.141Z,78.60
2023-04-16T11:56:32.232Z,79.60
2023-04-16T11:59:14.693Z,75.90
2023-04-16T12:01:49.995Z,74.60
2023-04-16T12:04:21.021Z,80.80
2023-04-16T12:07:14.197Z,82.10
2023-04-16T12:09:43.949Z,74.20
2023-04-16T12:12:32.437Z,81.60
2023-04-16T12:15:03.229Z,77.30
2023-04-16T12:17:35.529Z,83.50
2023-04-16T12:20:09.732Z,81.30
2023-04-16T12:22:39.691Z,81.60
2023-04-16T12:25:18.105Z,81.60
2023-04-16T12:27:53.300Z,81.50
2023-04-16T12:30:23.527Z,81.50
2023-04-16T12:33:13.849Z,81.10
2023-04-16T12:35:43.494Z,79.90
2023-04-16T12:38:11.931Z,80.00
2023-04-16T12:40:39.156Z,79.50
2023-04-16T12:43:06.226Z,80.30
2023-04-16T12:45:33.283Z,79.90
2023-04-16T12:48:00.451Z,80.20
2023-04-16T12:50:28.824Z,80.90
2023-04-16T12:52:59.282Z,82.30
2023-04-16T12:55:26.477Z,80.40
2023-04-16T12:57:54.432Z,83.10
2023-04-16T13:00:22.679Z,83.20
2023-04-16T13:02:49.736Z,82.20
2023-04-16T13:05:19.762Z,82.70
2023-04-16T13:07:46.704Z,83.50
2023-04-16T13:10:13.839Z,83.50
2023-04-16T13:12:41.025Z,83.50
2023-04-16T13:15:08.930Z,82.00
2023-04-16T13:17:35.767Z,80.20
2023-04-16T13:20:02.632Z,79.50
2023-04-16T13:22:29.569Z,79.80
2023-04-16T13:24:56.981Z,79.30
2023-04-16T13:27:23.949Z,79.20
2023-04-16T13:29:50.919Z,79.00
2023-04-16T13:32:18.867Z,79.50
2023-04-16T13:34:45.818Z,79.70
2023-04-16T13:37:12.817Z,80.30
2023-04-16T13:39:39.842Z,80.00
2023-04-16T13:42:06.851Z,80.60
2023-04-16T13:44:33.869Z,80.70
2023-04-16T13:47:00.997Z,79.80
2023-04-16T13:49:28.226Z,79.60
2023-04-16T13:51:55.054Z,80.60
2023-04-16T13:54:21.887Z,81.20
2023-04-16T13:56:51.234Z,81.80
2023-04-16T13:59:18.732Z,81.80
2023-04-16T14:01:45.737Z,82.30
2023-04-16T14:04:12.722Z,81.40
2023-04-16T14:06:39.752Z,81.10
2023-04-16T14:09:06.876Z,81.30
2023-04-16T14:11:33.882Z,81.90
2023-04-16T14:14:00.905Z,82.40
2023-04-16T14:16:28.018Z,82.70
2023-04-16T14:18:55.043Z,82.60
2023-04-16T14:21:21.936Z,83.00
2023-04-16T14:23:49.643Z,83.10
2023-04-16T14:26:16.711Z,82.10
2023-04-16T14:28:43.777Z,81.80
2023-04-16T14:31:10.760Z,81.20
2023-04-16T14:33:37.720Z,81.40
2023-04-16T14:36:05.389Z,81.60
2023-04-16T14:38:32.571Z,81.90
2023-04-16T14:41:00.560Z,82.10
2023-04-16T14:43:27.698Z,82.30
2023-04-16T14:45:54.923Z,82.10
2023-04-16T14:48:22.909Z,82.60
2023-04-16T14:50:49.901Z,82.80
2023-04-16T14:53:16.871Z,82.50
2023-04-16T14:55:44.018Z,82.20
2023-04-16T14:58:10.909Z,82.20
2023-04-16T15:00:38.119Z,82.50
2023-04-16T15:03:05.836Z,82.40
2023-04-16T15:05:33.007Z,82.30
2023-04-16T15:08:00.625Z,81.90
2023-04-16T15:10:27.909Z,82.40
2023-04-16T15:12:54.771Z,82.00
2023-04-16T15:15:21.921Z,82.00
2023-04-16T15:17:50.966Z,81.40
2023-04-16T15:20:18.345Z,81.40
2023-04-16T15:22:45.467Z,81.60
2023-04-16T15:25:12.525Z,81.90
2023-04-16T15:27:39.513Z,81.90
2023-04-16T15:30:07.384Z,81.70
2023-04-16T15:32:34.337Z,81.20
2023-04-16T15:35:03.450Z,81.40
2023-04-16T15:37:31.083Z,80.90
2023-04-16T15:39:58.023Z,80.90
2023-04-16T15:42:25.175Z,81.10
2023-04-16T15:44:52.208Z,81.30
2023-04-16T15:47:19.161Z,80.30
2023-04-16T15:49:46.079Z,80.30
2023-04-16T15:52:13.206Z,80.20
2023-04-16T15:54:40.833Z,80.30
2023-04-16T15:57:07.787Z,79.80
2023-04-16T15:59:34.671Z,80.20
2023-04-16T16:02:01.932Z,79.70
2023-04-16T16:04:29.107Z,79.90
2023-04-16T16:06:56.977Z,80.40
2023-04-16T16:09:26.589Z,79.80
2023-04-16T16:11:54.423Z,80.70
2023-04-16T16:14:22.253Z,81.40
2023-04-16T16:16:49.505Z,81.30
2023-04-16T16:19:18.514Z,81.10
2023-04-16T16:21:45.664Z,81.10
2023-04-16T16:24:12.604Z,80.60
2023-04-16T16:26:39.396Z,81.10
2023-04-16T16:29:07.102Z,81.30
2023-04-16T16:31:34.097Z,80.10
2023-04-16T16:34:01.193Z,80.10
2023-04-16T16:36:29.646Z,80.10
2023-04-16T16:38:56.983Z,80.20
2023-04-16T16:41:37.548Z,80.00
2023-04-16T16:44:04.629Z,77.50
2023-04-16T16:46:31.609Z,80.60
2023-04-16T16:48:58.529Z,80.30
2023-04-16T16:51:26.338Z,80.60
2023-04-16T16:53:53.414Z,80.60
2023-04-16T16:56:20.226Z,80.90
2023-04-16T16:58:47.046Z,80.70
2023-04-16T17:01:14.128Z,80.50
2023-04-16T17:03:41.439Z,80.40
2023-04-16T17:06:08.861Z,80.00
2023-04-16T17:08:35.858Z,80.20
2023-04-16T17:11:05.918Z,80.10
2023-04-16T17:13:32.866Z,79.40
2023-04-16T17:15:59.853Z,79.70
2023-04-16T17:18:26.931Z,79.70
2023-04-16T17:20:53.892Z,79.80
2023-04-16T17:23:20.757Z,79.80
2023-04-16T17:25:47.630Z,79.60
2023-04-16T17:28:14.526Z,79.40
2023-04-16T17:30:41.630Z,79.80
2023-04-16T17:33:08.653Z,79.30
2023-04-16T17:35:35.596Z,79.70
2023-04-16T17:38:02.484Z,79.90
2023-04-16T17:40:29.382Z,79.90
2023-04-16T17:42:56.231Z,79.70
2023-04-16T17:45:23.083Z,79.70
2023-04-16T17:47:49.958Z,79.50
2023-04-16T17:50:16.963Z,79.60
2023-04-16T17:52:43.846Z,80.10
2023-04-16T17:55:11.775Z,80.30
2023-04-16T17:57:38.664Z,80.30
2023-04-16T18:00:09.838Z,80.40
2023-04-16T18:02:39.352Z,80.30
2023-04-16T18:05:08.218Z,80.30
2023-04-16T18:07:36.370Z,80.50
2023-04-16T18:10:03.383Z,80.80
2023-04-16T18:12:30.367Z,81.20
2023-04-16T18:14:57.690Z,81.40
2023-04-16T18:17:24.612Z,81.60
2023-04-16T18:19:51.477Z,81.60
2023-04-16T18:22:18.336Z,81.40
2023-04-16T18:24:45.182Z,81.40
2023-04-16T18:27:12.524Z,81.40
2023-04-16T18:29:40.565Z,81.00
2023-04-16T18:32:11.481Z,81.20
2023-04-16T18:34:39.120Z,81.40
2023-04-16T18:37:06.880Z,81.30
2023-04-16T18:39:33.956Z,80.90
2023-04-16T18:42:01.479Z,81.10
2023-04-16T18:44:28.343Z,81.20
2023-04-16T18:46:55.280Z,81.40
2023-04-16T18:49:22.243Z,81.40
2023-04-16T18:51:49.156Z,81.20
2023-04-16T18:54:16.568Z,81.40
2023-04-16T18:56:43.441Z,81.20
2023-04-16T18:59:10.514Z,81.00
2023-04-16T19:01:37.556Z,81.10
2023-04-16T19:04:04.832Z,81.30
2023-04-16T19:06:32.537Z,81.30
2023-04-16T19:08:59.448Z,81.40
2023-04-16T19:11:27.177Z,81.60
2023-04-16T19:13:54.162Z,81.60
2023-04-16T19:16:21.435Z,81.70
2023-04-16T19:18:48.363Z,82.00
2023-04-16T19:21:15.615Z,82.10
2023-04-16T19:23:42.873Z,82.10
2023-04-16T19:26:09.801Z,82.00
2023-04-16T19:28:38.701Z,81.90
2023-04-16T19:31:06.609Z,81.90
2023-04-16T19:33:33.566Z,81.90
2023-04-16T19:36:01.892Z,82.00
2023-04-16T19:38:31.730Z,81.90
2023-04-16T19:40:58.679Z,82.40
2023-04-16T19:43:25.743Z,81.50
2023-04-16T19:45:54.344Z,81.50
2023-04-16T19:48:21.629Z,81.50
2023-04-16T19:50:48.937Z,81.40
2023-04-16T19:53:17.329Z,81.60
2023-04-16T19:55:44.422Z,81.60
2023-04-16T19:58:11.574Z,81.70
2023-04-16T20:00:41.030Z,81.50
2023-04-16T20:03:08.401Z,81.50
2023-04-16T20:05:35.813Z,81.60
2023-04-16T20:08:02.822Z,81.50
2023-04-16T20:10:31.603Z,81.10
2023-04-16T20:12:58.856Z,81.20
2023-04-16T20:15:26.005Z,80.90
2023-04-16T20:17:53.378Z,81.00
2023-04-16T20:20:22.713Z,80.90
2023-04-16T20:22:49.855Z,80.90
2023-04-16T20:25:18.922Z,81.00
2023-04-16T20:27:46.163Z,81.00
2023-04-16T20:30:13.922Z,80.90
2023-04-16T20:32:40.727Z,80.90
2023-04-16T20:35:10.745Z,80.90
2023-04-16T20:37:38.557Z,81.10
2023-04-16T20:40:08.962Z,81.20
2023-04-16T20:42:36.418Z,81.00
2023-04-16T20:45:03.523Z,81.20
2023-04-16T20:47:30.495Z,81.30
2023-04-16T20:49:58.262Z,81.20
2023-04-16T20:52:25.459Z,81.30
2023-04-16T20:54:52.419Z,81.30
2023-04-16T20:57:19.478Z,81.40
2023-04-16T20:59:46.470Z,81.40
2023-04-16T21:02:13.871Z,81.50
2023-04-16T21:04:41.186Z,81.40
2023-04-16T21:07:08.177Z,81.50
2023-04-16T21:09:35.059Z,81.60
2023-04-16T21:12:02.663Z,81.70
2023-04-16T21:14:29.640Z,81.80
2023-04-16T21:16:56.537Z,81.70
2023-04-16T21:19:23.457Z,81.90
2023-04-16T21:21:50.700Z,82.00
2023-04-16T21:24:17.643Z,82.20
2023-04-16T21:26:44.480Z,82.50
2023-04-16T21:29:11.395Z,82.80
2023-04-16T21:31:38.512Z,83.00
2023-04-16T21:34:05.382Z,83.20
2023-04-16T21:36:33.670Z,83.20
2023-04-16T21:39:00.810Z,83.30
2023-04-16T21:41:27.961Z,83.30
2023-04-16T21:43:54.830Z,83.30
2023-04-16T21:46:21.789Z,83.20
2023-04-16T21:48:49.678Z,83.00
2023-04-16T21:51:16.796Z,82.70
2023-04-16T21:53:43.673Z,82.30
2023-04-16T21:56:10.510Z,82.10
2023-04-16T21:58:37.319Z,81.90
2023-04-16T22:01:04.201Z,81.80
2023-04-16T22:03:31.320Z,81.70
2023-04-16T22:06:02.785Z,81.80
2023-04-16T22:08:30.201Z,82.00
2023-04-16T22:11:02.690Z,82.20
2023-04-16T22:13:33.908Z,81.90
2023-04-16T22:16:03.941Z,82.50
2023-04-16T22:18:33.681Z,82.60
2023-04-16T22:21:01.395Z,82.90
2023-04-16T22:23:28.243Z,82.70
2023-04-16T22:25:56.220Z,82.90
2023-04-16T22:28:23.710Z,82.70
2023-04-16T22:30:51.208Z,82.60
2023-04-16T22:33:21.002Z,82.60
2023-04-16T22:35:47.815Z,82.70
2023-04-16T22:38:15.082Z,82.80
2023-04-16T22:40:41.909Z,82.80
2023-04-16T22:43:08.758Z,82.70
2023-04-16T22:45:35.726Z,82.70
2023-04-16T22:48:02.850Z,82.50
2023-04-16T22:50:31.320Z,82.40
2023-04-16T22:52:58.480Z,82.50
2023-04-16T22:55:25.527Z,82.50
2023-04-16T22:57:52.458Z,82.40
2023-04-16T23:00:19.435Z,82.10
2023-04-16T23:02:46.495Z,81.70
2023-04-16T23:05:13.652Z,81.40
2023-04-16T23:07:40.522Z,81.10
2023-04-16T23:10:08.535Z,80.90
2023-04-16T23:12:37.365Z,80.80
2023-04-16T23:15:06.615Z,80.70
2023-04-16T23:17:35.020Z,80.50
2023-04-16T23:20:02.568Z,80.70
2023-04-16T23:22:29.516Z,80.80
2023-04-16T23:24:56.410Z,80.80
2023-04-16T23:27:23.433Z,80.80
2023-04-16T23:29:50.701Z,80.90
2023-04-16T23:32:17.685Z,81.00
2023-04-16T23:34:44.602Z,81.10
2023-04-16T23:37:11.473Z,81.10
2023-04-16T23:39:38.390Z,81.00
2023-04-16T23:42:05.303Z,81.00
2023-04-16T23:44:32.172Z,81.20
2023-04-16T23:46:59.094Z,81.40
2023-04-16T23:49:25.957Z,81.60
2023-04-16T23:51:52.965Z,81.60
2023-04-16T23:54:19.930Z,81.50
2023-04-16T23:56:47.213Z,81.40
2023-04-16T23:59:14.610Z,81.30
